createdAt,value
2023-04-16T00:00:43.770Z,89.95
2023-04-16T00:03:46.983Z,89.90
2023-04-16T00:06:49.692Z,90.58
2023-04-16T00:09:52.238Z,90.68
2023-04-16T00:12:54.745Z,90.85
2023-04-16T00:15:57.277Z,91.39
2023-04-16T00:18:59.704Z,91.78
2023-04-16T00:22:02.257Z,91.84
2023-04-16T00:25:05.165Z,92.03
2023-04-16T00:28:09.025Z,92.17
2023-04-16T00:31:12.423Z,92.23
2023-04-16T00:34:15.322Z,92.26
2023-04-16T00:37:17.795Z,92.36
2023-04-16T00:40:20.357Z,92.60
2023-04-16T00:43:24.850Z,92.91
2023-04-16T00:46:27.760Z,92.86
2023-04-16T00:49:31.602Z,92.92
2023-04-16T00:52:35.746Z,92.86
2023-04-16T00:55:39.687Z,92.96
2023-04-16T00:58:42.279Z,93.02
2023-04-16T01:01:44.890Z,92.94
2023-04-16T01:04:47.594Z,93.13
2023-04-16T01:07:51.270Z,93.28
2023-04-16T01:10:53.681Z,93.55
2023-04-16T01:13:56.253Z,93.48
2023-04-16T01:16:58.662Z,93.49
2023-04-16T01:20:01.300Z,93.61
2023-04-16T01:23:04.010Z,93.63
2023-04-16T01:26:06.481Z,93.58
2023-04-16T01:29:09.179Z,93.36
2023-04-16T01:32:11.950Z,93.57
2023-04-16T01:35:18.368Z,93.42
2023-04-16T01:38:21.035Z,93.58
2023-04-16T01:41:23.487Z,93.60
2023-04-16T01:44:26.478Z,93.42
2023-04-16T01:47:29.326Z,93.42
2023-04-16T01:50:32.929Z,93.15
2023-04-16T01:53:37.113Z,93.29
2023-04-16T01:56:40.017Z,93.17
2023-04-16T01:59:42.467Z,92.88
2023-04-16T02:02:45.548Z,92.88
2023-04-16T02:05:52.352Z,93.09
2023-04-16T02:08:54.805Z,93.02
2023-04-16T02:11:57.490Z,92.86
2023-04-16T02:15:00.162Z,92.97
2023-04-16T02:18:04.811Z,93.08
2023-04-16T02:21:08.066Z,92.90
2023-04-16T02:24:10.659Z,93.10
2023-04-16T02:27:13.092Z,93.14
2023-04-16T02:30:16.616Z,93.17
2023-04-16T02:33:20.284Z,93.33
2023-04-16T02:36:32.238Z,93.16
2023-04-16T02:39:35.463Z,93.25
2023-04-16T02:42:37.883Z,93.11
2023-04-16T02:45:41.332Z,92.83
2023-04-16T02:48:43.998Z,92.93
2023-04-16T02:51:46.976Z,92.77
2023-04-16T02:54:49.537Z,92.78
2023-04-16T02:57:52.976Z,92.92
2023-04-16T03:00:55.796Z,92.91
2023-04-16T03:03:58.425Z,92.92
2023-04-16T03:07:01.033Z,93.26
2023-04-16T03:10:03.749Z,93.58
2023-04-16T03:13:06.515Z,93.75
2023-04-16T03:16:09.107Z,93.97
2023-04-16T03:19:12.138Z,94.07
2023-04-16T03:22:15.062Z,94.13
2023-04-16T03:25:18.057Z,93.86
2023-04-16T03:28:21.789Z,94.07
2023-04-16T03:31:26.068Z,93.99
2023-04-16T03:34:29.634Z,94.13
2023-04-16T03:37:32.302Z,94.22
2023-04-16T03:40:34.804Z,94.31
2023-04-16T03:43:37.538Z,94.32
2023-04-16T03:46:40.657Z,94.28
2023-04-16T03:49:43.162Z,94.26
2023-04-16T03:52:47.008Z,94.08
2023-04-16T03:55:51.589Z,94.14
2023-04-16T03:58:54.912Z,94.13
2023-04-16T04:01:58.288Z,94.05
2023-04-16T04:05:02.462Z,94.29
2023-04-16T04:08:05.575Z,94.15
2023-04-16T04:11:08.796Z,93.89
2023-04-16T04:14:11.960Z,93.72
2023-04-16T04:17:14.613Z,93.00
2023-04-16T04:20:17.330Z,92.41
2023-04-16T04:23:22.145Z,92.33
2023-04-16T04:26:25.746Z,91.70
2023-04-16T04:29:28.480Z,91.72
2023-04-16T04:32:31.402Z,91.36
2023-04-16T04:35:34.035Z,91.34
2023-04-16T04:38:37.057Z,91.10
2023-04-16T04:41:40.508Z,91.23
2023-04-16T04:44:43.092Z,91.38
2023-04-16T04:47:46.019Z,90.79
2023-04-16T04:50:48.467Z,90.62
2023-04-16T04:53:50.836Z,90.51
2023-04-16T04:56:53.491Z,90.42
2023-04-16T04:59:56.440Z,90.37
2023-04-16T05:03:03.029Z,90.68
2023-04-16T05:06:05.647Z,90.91
2023-04-16T05:09:11.889Z,91.28
2023-04-16T05:12:14.440Z,91.14
2023-04-16T05:15:17.240Z,91.15
2023-04-16T05:18:20.506Z,91.10
2023-04-16T05:21:23.003Z,91.03
2023-04-16T05:24:25.753Z,90.76
2023-04-16T05:27:28.218Z,90.75
2023-04-16T05:30:30.838Z,90.70
2023-04-16T05:33:33.316Z,90.22
2023-04-16T05:36:35.782Z,89.93
2023-04-16T05:39:38.546Z,89.48
2023-04-16T05:42:41.373Z,89.15
2023-04-16T05:45:43.914Z,88.88
2023-04-16T05:48:47.328Z,88.44
2023-04-16T05:51:50.860Z,88.36
2023-04-16T05:54:53.516Z,88.24
2023-04-16T05:57:56.063Z,87.72
2023-04-16T06:00:58.717Z,87.60
2023-04-16T06:04:01.847Z,87.09
2023-04-16T06:07:04.587Z,86.77
2023-04-16T06:10:07.569Z,86.83
2023-04-16T06:13:10.057Z,85.99
2023-04-16T06:16:12.596Z,86.13
2023-04-16T06:19:15.296Z,85.20
2023-04-16T06:22:17.923Z,85.41
2023-04-16T06:25:20.433Z,85.09
2023-04-16T06:28:23.005Z,84.52
2023-04-16T06:31:25.644Z,84.39
2023-04-16T06:34:28.491Z,84.30
2023-04-16T06:37:31.249Z,84.60
2023-04-16T06:40:33.764Z,84.04
2023-04-16T06:43:36.570Z,83.68
2023-04-16T06:46:39.530Z,83.21
2023-04-16T06:49:42.405Z,83.15
2023-04-16T06:52:45.119Z,83.14
2023-04-16T06:55:47.683Z,81.66
2023-04-16T06:58:50.558Z,80.65
2023-04-16T07:01:53.128Z,80.12
2023-04-16T07:04:55.952Z,79.22
2023-04-16T07:07:59.279Z,78.39
2023-04-16T07:11:01.883Z,77.67
2023-04-16T07:14:04.300Z,76.80
2023-04-16T07:17:06.777Z,76.94
2023-04-16T07:20:09.589Z,77.26
2023-04-16T07:23:12.099Z,76.40
2023-04-16T07:26:14.581Z,76.54
2023-04-16T07:29:17.396Z,76.42
2023-04-16T07:32:22.523Z,76.30
2023-04-16T07:35:25.476Z,76.40
2023-04-16T07:38:28.122Z,76.06
2023-04-16T07:41:31.052Z,75.94
2023-04-16T07:44:33.701Z,76.44
2023-04-16T07:47:36.655Z,74.13
2023-04-16T07:50:39.280Z,73.61
2023-04-16T07:53:43.432Z,72.80
2023-04-16T07:56:46.140Z,71.36
2023-04-16T07:59:49.122Z,70.73
2023-04-16T08:02:51.615Z,69.93
2023-04-16T08:05:54.271Z,67.99
2023-04-16T08:08:57.009Z,66.74
2023-04-16T08:12:00.937Z,66.24
2023-04-16T08:15:03.751Z,66.08
2023-04-16T08:18:07.464Z,66.36
2023-04-16T08:21:10.002Z,65.67
2023-04-16T08:24:12.741Z,65.55
2023-04-16T08:27:19.964Z,64.74
2023-04-16T08:30:23.049Z,64.54
2023-04-16T08:33:25.525Z,65.27
2023-04-16T08:36:27.991Z,63.33
2023-04-16T08:39:30.555Z,63.24
2023-04-16T08:42:45.005Z,62.13
2023-04-16T08:45:47.695Z,62.04
2023-04-16T08:48:54.404Z,61.73
2023-04-16T08:51:57.525Z,61.45
2023-04-16T08:55:16.925Z,61.08
2023-04-16T08:58:22.208Z,60.79
2023-04-16T09:01:26.879Z,59.05
2023-04-16T09:04:30.002Z,59.58
2023-04-16T09:07:34.227Z,57.52
2023-04-16T09:10:36.781Z,58.00
2023-04-16T09:13:39.600Z,55.74
2023-04-16T09:16:42.417Z,54.85
2023-04-16T09:19:47.189Z,54.16
2023-04-16T09:22:49.815Z,54.89
2023-04-16T09:25:52.221Z,54.95
2023-04-16T09:28:55.540Z,53.85
2023-04-16T09:32:09.084Z,54.44
2023-04-16T09:35:11.665Z,54.73
2023-04-16T09:38:14.236Z,57.05
2023-04-16T09:41:16.888Z,55.77
2023-04-16T09:44:19.345Z,55.86
2023-04-16T09:47:22.916Z,55.77
2023-04-16T09:50:26.495Z,56.48
2023-04-16T09:53:31.054Z,55.43
2023-04-16T09:56:34.114Z,56.00
2023-04-16T09:59:37.141Z,55.33
2023-04-16T10:02:42.213Z,55.12
2023-04-16T10:05:45.403Z,54.45
2023-04-16T10:08:53.356Z,53.90
2023-04-16T10:11:55.967Z,55.62
2023-04-16T10:14:58.479Z,53.75
2023-04-16T10:18:01.388Z,54.51
2023-04-16T10:21:05.662Z,53.25
2023-04-16T10:24:08.904Z,51.16
2023-04-16T10:27:11.548Z,52.80
2023-04-16T10:30:15.633Z,51.83
2023-04-16T10:33:30.285Z,51.92
2023-04-16T10:36:36.727Z,51.04
2023-04-16T10:39:39.649Z,51.54
2023-04-16T10:42:42.182Z,51.25
2023-04-16T10:45:44.675Z,51.73
2023-04-16T10:48:50.214Z,50.38
2023-04-16T10:52:12.285Z,49.31
2023-04-16T10:55:17.752Z,49.12
2023-04-16T10:58:35.876Z,47.50
2023-04-16T11:01:44.417Z,46.91
2023-04-16T11:04:48.587Z,45.91
2023-04-16T11:07:51.170Z,45.75
2023-04-16T11:10:54.330Z,43.43
2023-04-16T11:13:57.147Z,43.05
2023-04-16T11:17:03.764Z,42.34
2023-04-16T11:20:20.144Z,41.58
2023-04-16T11:23:23.775Z,39.70
2023-04-16T11:26:28.857Z,39.22
2023-04-16T11:29:31.393Z,39.04
2023-04-16T11:32:35.627Z,38.84
2023-04-16T11:35:39.653Z,40.40
2023-04-16T11:38:43.070Z,39.31
2023-04-16T11:41:52.342Z,35.50
2023-04-16T11:44:56.216Z,33.92
2023-04-16T11:47:58.901Z,32.48
2023-04-16T11:51:01.791Z,34.23
2023-04-16T11:54:04.634Z,36.77
2023-04-16T11:57:07.260Z,38.34
2023-04-16T12:00:15.970Z,37.55
2023-04-16T12:03:18.651Z,38.71
2023-04-16T12:06:22.722Z,37.99
2023-04-16T12:09:30.152Z,37.64
2023-04-16T12:12:32.914Z,36.84
2023-04-16T12:15:55.355Z,36.13
2023-04-16T12:19:03.885Z,36.63
2023-04-16T12:22:06.659Z,37.98
2023-04-16T12:25:13.139Z,39.28
2023-04-16T12:28:16.551Z,39.09
2023-04-16T12:31:37.464Z,38.99
2023-04-16T12:34:51.431Z,40.56
2023-04-16T12:37:53.843Z,41.46
2023-04-16T12:40:57.648Z,41.67
2023-04-16T12:44:11.984Z,41.98
2023-04-16T12:47:14.992Z,41.12
2023-04-16T12:50:17.874Z,42.11
2023-04-16T12:53:20.523Z,40.97
2023-04-16T12:56:23.220Z,42.42
2023-04-16T12:59:26.850Z,42.19
2023-04-16T13:02:29.597Z,42.46
2023-04-16T13:05:32.417Z,42.27
2023-04-16T13:08:35.031Z,42.00
2023-04-16T13:11:37.773Z,41.89
2023-04-16T13:14:40.296Z,39.89
2023-04-16T13:17:42.823Z,39.19
2023-04-16T13:20:45.553Z,37.70
2023-04-16T13:23:48.000Z,34.51
2023-04-16T13:26:52.060Z,33.36
2023-04-16T13:29:54.613Z,30.01
2023-04-16T13:32:57.253Z,29.13
2023-04-16T13:36:00.171Z,29.14
2023-04-16T13:39:05.267Z,29.99
2023-04-16T13:42:08.124Z,29.02
2023-04-16T13:45:11.374Z,28.44
2023-04-16T13:48:14.234Z,26.52
2023-04-16T13:51:17.029Z,24.31
2023-04-16T13:54:20.058Z,23.08
2023-04-16T13:57:22.768Z,24.23
2023-04-16T14:00:27.690Z,25.51
2023-04-16T14:03:30.543Z,27.66
2023-04-16T14:06:34.620Z,27.17
2023-04-16T14:09:37.392Z,28.38
2023-04-16T14:12:40.681Z,29.32
2023-04-16T14:15:43.498Z,29.28
2023-04-16T14:18:46.404Z,28.79
2023-04-16T14:21:49.310Z,29.45
2023-04-16T14:24:52.010Z,27.76
2023-04-16T14:27:54.526Z,28.25
2023-04-16T14:30:57.333Z,27.88
2023-04-16T14:33:59.950Z,28.90
2023-04-16T14:37:02.478Z,27.77
2023-04-16T14:40:08.999Z,25.62
2023-04-16T14:43:11.959Z,22.72
2023-04-16T14:46:17.660Z,21.03
2023-04-16T14:49:20.798Z,20.76
2023-04-16T14:52:24.209Z,23.92
2023-04-16T14:55:27.216Z,26.05
2023-04-16T14:58:29.720Z,28.44
2023-04-16T15:01:33.712Z,30.82
2023-04-16T15:04:36.645Z,33.30
2023-04-16T15:07:39.419Z,33.13
2023-04-16T15:10:43.383Z,34.71
2023-04-16T15:13:48.930Z,34.28
2023-04-16T15:16:51.701Z,34.25
2023-04-16T15:19:54.371Z,35.30
2023-04-16T15:22:56.985Z,35.36
2023-04-16T15:25:59.492Z,36.92
2023-04-16T15:29:02.139Z,35.89
2023-04-16T15:32:04.808Z,36.49
2023-04-16T15:35:09.181Z,36.49
2023-04-16T15:38:13.062Z,36.10
2023-04-16T15:41:15.921Z,36.32
2023-04-16T15:44:18.691Z,36.43
2023-04-16T15:47:21.522Z,36.68
2023-04-16T15:50:25.527Z,36.83
2023-04-16T15:53:28.265Z,36.80
2023-04-16T15:56:31.596Z,37.44
2023-04-16T15:59:34.291Z,38.42
2023-04-16T16:02:38.196Z,39.07
2023-04-16T16:05:41.082Z,38.84
2023-04-16T16:08:44.187Z,39.53
2023-04-16T16:11:47.322Z,40.29
2023-04-16T16:14:50.017Z,40.83
2023-04-16T16:17:53.539Z,41.65
2023-04-16T16:20:57.751Z,41.33
2023-04-16T16:24:00.344Z,41.80
2023-04-16T16:27:03.089Z,42.81
2023-04-16T16:30:07.385Z,43.34
2023-04-16T16:33:10.507Z,44.82
2023-04-16T16:36:13.170Z,44.34
2023-04-16T16:39:16.053Z,44.52
2023-04-16T16:42:18.969Z,44.41
2023-04-16T16:45:21.807Z,44.41
2023-04-16T16:48:24.818Z,45.25
2023-04-16T16:51:27.770Z,45.60
2023-04-16T16:54:31.063Z,45.52
2023-04-16T16:57:34.953Z,45.27
2023-04-16T17:00:38.008Z,46.31
2023-04-16T17:03:41.247Z,46.74
2023-04-16T17:06:43.821Z,46.90
2023-04-16T17:09:46.762Z,47.18
2023-04-16T17:12:51.114Z,47.67
2023-04-16T17:15:53.848Z,48.29
2023-04-16T17:18:57.314Z,48.28
2023-04-16T17:22:00.353Z,48.90
2023-04-16T17:25:03.934Z,49.13
2023-04-16T17:28:06.676Z,49.15
2023-04-16T17:31:11.432Z,49.95
2023-04-16T17:34:14.522Z,50.79
2023-04-16T17:37:16.927Z,50.44
2023-04-16T17:40:19.944Z,50.04
2023-04-16T17:43:22.816Z,51.19
2023-04-16T17:46:25.949Z,50.10
2023-04-16T17:49:28.646Z,50.25
2023-04-16T17:52:31.413Z,49.60
2023-04-16T17:55:34.014Z,49.84
2023-04-16T17:58:37.622Z,50.09
2023-04-16T18:01:41.042Z,50.54
2023-04-16T18:04:43.654Z,51.17
2023-04-16T18:07:47.144Z,52.28
2023-04-16T18:10:50.487Z,52.86
2023-04-16T18:13:53.986Z,52.82
2023-04-16T18:16:58.350Z,53.13
2023-04-16T18:20:01.055Z,53.67
2023-04-16T18:23:04.106Z,53.37
2023-04-16T18:26:08.432Z,54.30
2023-04-16T18:29:13.224Z,54.42
2023-04-16T18:32:16.617Z,54.78
2023-04-16T18:35:19.589Z,54.57
2023-04-16T18:38:22.639Z,54.24
2023-04-16T18:41:25.643Z,53.29
2023-04-16T18:44:28.379Z,53.38
2023-04-16T18:47:31.500Z,53.27
2023-04-16T18:50:34.184Z,54.37
2023-04-16T18:53:38.045Z,54.58
2023-04-16T18:56:41.332Z,54.59
2023-04-16T18:59:44.216Z,54.28
2023-04-16T19:02:47.235Z,54.75
2023-04-16T19:05:52.076Z,54.80
2023-04-16T19:08:54.984Z,53.99
2023-04-16T19:11:58.464Z,54.09
2023-04-16T19:15:01.670Z,53.89
2023-04-16T19:18:04.751Z,53.91
2023-04-16T19:21:07.677Z,53.61
2023-04-16T19:24:11.209Z,53.86
2023-04-16T19:27:14.015Z,53.49
2023-04-16T19:30:17.004Z,52.83
2023-04-16T19:33:23.209Z,53.42
2023-04-16T19:36:26.536Z,53.28
2023-04-16T19:39:29.327Z,54.12
2023-04-16T19:42:32.674Z,53.77
2023-04-16T19:45:36.251Z,53.86
2023-04-16T19:48:38.851Z,54.04
2023-04-16T19:51:41.559Z,54.17
2023-04-16T19:54:44.702Z,53.75
2023-04-16T19:57:48.202Z,54.25
2023-04-16T20:00:51.008Z,54.27
2023-04-16T20:03:54.680Z,54.22
2023-04-16T20:06:57.385Z,54.40
2023-04-16T20:10:00.047Z,54.11
2023-04-16T20:13:02.923Z,53.59
2023-04-16T20:16:05.953Z,53.92
2023-04-16T20:19:09.062Z,53.35
2023-04-16T20:22:15.659Z,53.34
2023-04-16T20:25:21.776Z,53.50
2023-04-16T20:28:24.324Z,53.60
2023-04-16T20:31:27.388Z,53.23
2023-04-16T20:34:29.982Z,52.88
2023-04-16T20:37:32.547Z,53.51
2023-04-16T20:40:38.062Z,53.46
2023-04-16T20:43:42.066Z,53.63
2023-04-16T20:46:49.484Z,53.25
2023-04-16T20:49:52.970Z,53.65
2023-04-16T20:52:55.937Z,53.05
2023-04-16T20:56:00.516Z,53.17
2023-04-16T20:59:03.005Z,52.90
2023-04-16T21:02:05.867Z,52.60
2023-04-16T21:05:14.596Z,53.02
2023-04-16T21:08:21.462Z,53.44
2023-04-16T21:11:23.970Z,54.01
2023-04-16T21:14:26.559Z,53.52
2023-04-16T21:17:30.010Z,52.72
2023-04-16T21:20:33.257Z,52.78
2023-04-16T21:23:36.026Z,53.03
2023-04-16T21:26:38.449Z,53.80
2023-04-16T21:29:40.829Z,53.40
2023-04-16T21:32:43.627Z,53.42
2023-04-16T21:35:51.258Z,53.96
2023-04-16T21:38:53.701Z,54.21
2023-04-16T21:41:57.055Z,53.82
2023-04-16T21:44:59.661Z,54.68
2023-04-16T21:48:02.211Z,54.91
2023-04-16T21:51:08.231Z,55.19
2023-04-16T21:54:11.877Z,54.55
2023-04-16T21:57:14.841Z,54.57
2023-04-16T22:00:18.375Z,54.57
2023-04-16T22:03:26.665Z,54.35
2023-04-16T22:06:29.244Z,54.14
2023-04-16T22:09:32.623Z,53.88
2023-04-16T22:12:37.857Z,54.19
2023-04-16T22:15:40.607Z,54.49
2023-04-16T22:18:43.167Z,54.12
2023-04-16T22:21:47.575Z,53.14
2023-04-16T22:24:50.060Z,53.25
2023-04-16T22:27:52.627Z,53.38
2023-04-16T22:30:55.013Z,53.65
2023-04-16T22:33:57.525Z,53.49
2023-04-16T22:37:01.456Z,53.37
2023-04-16T22:40:08.230Z,53.56
2023-04-16T22:43:10.919Z,54.16
2023-04-16T22:46:13.493Z,53.56
2023-04-16T22:49:16.078Z,53.85
2023-04-16T22:52:18.625Z,53.81
2023-04-16T22:55:21.185Z,53.84
2023-04-16T22:58:23.581Z,54.62
2023-04-16T23:01:26.536Z,53.70
2023-04-16T23:04:29.221Z,54.95
2023-04-16T23:07:31.803Z,54.51
2023-04-16T23:10:34.272Z,54.72
2023-04-16T23:13:37.397Z,54.30
2023-04-16T23:16:40.097Z,54.09
2023-04-16T23:19:42.565Z,54.51
2023-04-16T23:22:47.203Z,54.41
2023-04-16T23:25:53.261Z,54.96
2023-04-16T23:28:57.093Z,54.94
2023-04-16T23:31:59.693Z,54.95
2023-04-16T23:35:02.281Z,54.75
2023-04-16T23:38:04.777Z,54.62
2023-04-16T23:41:07.445Z,53.93
2023-04-16T23:44:09.968Z,54.05
2023-04-16T23:47:12.351Z,54.58
2023-04-16T23:50:15.191Z,54.42
2023-04-16T23:53:17.870Z,54.28
2023-04-16T23:56:20.430Z,54.35
2023-04-16T23:59:24.184Z,54.62
